sensor_id;sensor_type;location;lat;lon;timestamp;temperature;humidity
16301;DHT22;8258;51.020;4.248;2023-09-12T00:01:04;19.40;99.90
16301;DHT22;8258;51.020;4.248;2023-09-12T00:03:32;19.40;99.90
16301;DHT22;8258;51.020;4.248;2023-09-12T00:06:01;19.40;99.90
16301;DHT22;8258;51.020;4.248;2023-09-12T00:08:30;19.40;99.90
16301;DHT22;8258;51.020;4.248;2023-09-12T00:11:01;19.40;99.90
16301;DHT22;8258;51.020;4.248;2023-09-12T00:13:29;19.40;99.90
16301;DHT22;8258;51.020;4.248;2023-09-12T00:15:59;19.50;99.90
16301;DHT22;8258;51.020;4.248;2023-09-12T00:18:26;19.50;99.90
16301;DHT22;8258;51.020;4.248;2023-09-12T00:20:53;19.50;99.90
16301;DHT22;8258;51.020;4.248;2023-09-12T00:23:21;19.50;99.90
16301;DHT22;8258;51.020;4.248;2023-09-12T00:25:51;19.40;99.90
16301;DHT22;8258;51.020;4.248;2023-09-12T00:28:18;19.50;99.90
16301;DHT22;8258;51.020;4.248;2023-09-12T00:30:45;19.60;99.90
16301;DHT22;8258;51.020;4.248;2023-09-12T00:33:12;19.60;99.90
16301;DHT22;8258;51.020;4.248;2023-09-12T00:35:39;19.70;99.90
16301;DHT22;8258;51.020;4.248;2023-09-12T00:38:06;19.60;99.90
16301;DHT22;8258;51.020;4.248;2023-09-12T00:40:33;19.60;99.90
16301;DHT22;8258;51.020;4.248;2023-09-12T00:43:01;19.50;99.90
16301;DHT22;8258;51.020;4.248;2023-09-12T00:45:28;19.40;99.90
16301;DHT22;8258;51.020;4.248;2023-09-12T00:47:56;19.50;99.90
16301;DHT22;8258;51.020;4.248;2023-09-12T00:50:25;19.40;99.90
16301;DHT22;8258;51.020;4.248;2023-09-12T00:52:52;19.40;99.90
16301;DHT22;8258;51.020;4.248;2023-09-12T00:55:20;19.30;99.90
16301;DHT22;8258;51.020;4.248;2023-09-12T00:57:47;19.30;99.90
16301;DHT22;8258;51.020;4.248;2023-09-12T01:00:16;19.40;99.90
16301;DHT22;8258;51.020;4.248;2023-09-12T01:02:45;19.40;99.90
16301;DHT22;8258;51.020;4.248;2023-09-12T01:05:14;19.40;99.90
16301;DHT22;8258;51.020;4.248;2023-09-12T01:07:43;19.50;99.90
16301;DHT22;8258;51.020;4.248;2023-09-12T01:10:10;19.50;99.90
16301;DHT22;8258;51.020;4.248;2023-09-12T01:12:37;19.50;99.90
16301;DHT22;8258;51.020;4.248;2023-09-12T01:15:05;19.50;99.90
16301;DHT22;8258;51.020;4.248;2023-09-12T01:17:41;19.50;99.90
16301;DHT22;8258;51.020;4.248;2023-09-12T01:20:11;19.60;99.90
16301;DHT22;8258;51.020;4.248;2023-09-12T01:22:55;19.60;99.90
16301;DHT22;8258;51.020;4.248;2023-09-12T01:25:45;19.60;99.90
16301;DHT22;8258;51.020;4.248;2023-09-12T01:28:19;19.60;99.90
16301;DHT22;8258;51.020;4.248;2023-09-12T01:30:49;19.70;99.90
16301;DHT22;8258;51.020;4.248;2023-09-12T01:33:17;19.70;99.90
16301;DHT22;8258;51.020;4.248;2023-09-12T01:35:45;19.70;99.90
16301;DHT22;8258;51.020;4.248;2023-09-12T01:38:12;19.70;99.90
16301;DHT22;8258;51.020;4.248;2023-09-12T01:40:52;19.70;99.90
16301;DHT22;8258;51.020;4.248;2023-09-12T01:43:24;19.80;99.90
16301;DHT22;8258;51.020;4.248;2023-09-12T01:45:54;19.80;99.90
16301;DHT22;8258;51.020;4.248;2023-09-12T01:48:24;19.70;99.90
16301;DHT22;8258;51.020;4.248;2023-09-12T01:50:54;19.60;99.90
16301;DHT22;8258;51.020;4.248;2023-09-12T01:53:21;19.60;99.90
16301;DHT22;8258;51.020;4.248;2023-09-12T01:55:48;19.60;99.90
16301;DHT22;8258;51.020;4.248;2023-09-12T01:58:16;19.60;99.90
16301;DHT22;8258;51.020;4.248;2023-09-12T02:00:44;19.60;99.90
16301;DHT22;8258;51.020;4.248;2023-09-12T02:03:11;19.70;99.90
16301;DHT22;8258;51.020;4.248;2023-09-12T02:05:38;19.60;99.90
16301;DHT22;8258;51.020;4.248;2023-09-12T02:08:06;19.60;99.90
16301;DHT22;8258;51.020;4.248;2023-09-12T02:10:33;19.70;99.90
16301;DHT22;8258;51.020;4.248;2023-09-12T02:13:00;19.70;99.90
16301;DHT22;8258;51.020;4.248;2023-09-12T02:15:27;19.60;99.90
16301;DHT22;8258;51.020;4.248;2023-09-12T02:17:55;19.50;99.90
16301;DHT22;8258;51.020;4.248;2023-09-12T02:20:22;19.40;99.90
16301;DHT22;8258;51.020;4.248;2023-09-12T02:22:49;19.40;99.90
16301;DHT22;8258;51.020;4.248;2023-09-12T02:25:16;19.50;99.90
16301;DHT22;8258;51.020;4.248;2023-09-12T02:27:43;19.40;99.90
16301;DHT22;8258;51.020;4.248;2023-09-12T02:30:10;19.40;99.90
16301;DHT22;8258;51.020;4.248;2023-09-12T02:32:37;19.40;99.90
16301;DHT22;8258;51.020;4.248;2023-09-12T02:35:06;19.30;99.90
16301;DHT22;8258;51.020;4.248;2023-09-12T02:37:33;19.20;99.90
16301;DHT22;8258;51.020;4.248;2023-09-12T02:40:00;19.10;99.90
16301;DHT22;8258;51.020;4.248;2023-09-12T02:42:29;19.10;99.90
16301;DHT22;8258;51.020;4.248;2023-09-12T02:44:58;19.10;99.90
16301;DHT22;8258;51.020;4.248;2023-09-12T02:47:24;19.10;99.90
16301;DHT22;8258;51.020;4.248;2023-09-12T02:49:51;19.10;99.90
16301;DHT22;8258;51.020;4.248;2023-09-12T02:52:20;19.10;99.90
16301;DHT22;8258;51.020;4.248;2023-09-12T02:54:47;19.10;99.90
16301;DHT22;8258;51.020;4.248;2023-09-12T02:57:14;19.20;99.90
16301;DHT22;8258;51.020;4.248;2023-09-12T02:59:41;19.20;99.90
16301;DHT22;8258;51.020;4.248;2023-09-12T03:02:08;19.10;99.90
16301;DHT22;8258;51.020;4.248;2023-09-12T03:04:35;19.10;99.90
16301;DHT22;8258;51.020;4.248;2023-09-12T03:07:03;19.10;99.90
16301;DHT22;8258;51.020;4.248;2023-09-12T03:09:31;19.10;99.90
16301;DHT22;8258;51.020;4.248;2023-09-12T03:12:01;19.10;99.90
16301;DHT22;8258;51.020;4.248;2023-09-12T03:14:28;19.00;99.90
16301;DHT22;8258;51.020;4.248;2023-09-12T03:16:55;18.90;99.90
16301;DHT22;8258;51.020;4.248;2023-09-12T03:19:22;18.90;99.90
16301;DHT22;8258;51.020;4.248;2023-09-12T03:21:49;18.90;99.90
16301;DHT22;8258;51.020;4.248;2023-09-12T03:24:16;18.80;99.90
16301;DHT22;8258;51.020;4.248;2023-09-12T03:26:45;18.80;99.90
16301;DHT22;8258;51.020;4.248;2023-09-12T03:29:12;18.80;99.90
16301;DHT22;8258;51.020;4.248;2023-09-12T03:31:39;18.80;99.90
16301;DHT22;8258;51.020;4.248;2023-09-12T03:34:06;18.80;99.90
16301;DHT22;8258;51.020;4.248;2023-09-12T03:36:33;18.80;99.90
16301;DHT22;8258;51.020;4.248;2023-09-12T03:39:00;18.70;99.90
16301;DHT22;8258;51.020;4.248;2023-09-12T03:41:28;18.70;99.90
16301;DHT22;8258;51.020;4.248;2023-09-12T03:43:57;18.70;99.90
16301;DHT22;8258;51.020;4.248;2023-09-12T03:46:23;18.70;99.90
16301;DHT22;8258;51.020;4.248;2023-09-12T03:48:51;18.80;99.90
16301;DHT22;8258;51.020;4.248;2023-09-12T03:51:18;18.70;99.90
16301;DHT22;8258;51.020;4.248;2023-09-12T03:53:45;18.80;99.90
16301;DHT22;8258;51.020;4.248;2023-09-12T03:56:13;18.80;99.90
16301;DHT22;8258;51.020;4.248;2023-09-12T03:58:41;18.90;99.90
16301;DHT22;8258;51.020;4.248;2023-09-12T04:01:09;18.90;99.90
16301;DHT22;8258;51.020;4.248;2023-09-12T04:03:36;18.90;99.90
16301;DHT22;8258;51.020;4.248;2023-09-12T04:06:03;18.80;99.90
16301;DHT22;8258;51.020;4.248;2023-09-12T04:11:06;18.90;99.90
16301;DHT22;8258;51.020;4.248;2023-09-12T04:16:03;18.80;99.90
16301;DHT22;8258;51.020;4.248;2023-09-12T04:18:31;18.80;99.90
16301;DHT22;8258;51.020;4.248;2023-09-12T04:20:58;18.80;99.90
16301;DHT22;8258;51.020;4.248;2023-09-12T04:23:25;18.70;99.90
16301;DHT22;8258;51.020;4.248;2023-09-12T04:25:52;18.70;99.90
16301;DHT22;8258;51.020;4.248;2023-09-12T04:28:19;18.70;99.90
16301;DHT22;8258;51.020;4.248;2023-09-12T04:30:46;18.70;99.90
16301;DHT22;8258;51.020;4.248;2023-09-12T04:33:13;18.70;99.90
16301;DHT22;8258;51.020;4.248;2023-09-12T04:35:42;18.80;99.90
16301;DHT22;8258;51.020;4.248;2023-09-12T04:38:08;18.70;99.90
16301;DHT22;8258;51.020;4.248;2023-09-12T04:40:35;18.70;99.90
16301;DHT22;8258;51.020;4.248;2023-09-12T04:43:05;18.80;99.90
16301;DHT22;8258;51.020;4.248;2023-09-12T04:45:33;18.80;99.90
16301;DHT22;8258;51.020;4.248;2023-09-12T04:48:00;18.80;99.90
16301;DHT22;8258;51.020;4.248;2023-09-12T04:50:27;18.90;99.90
16301;DHT22;8258;51.020;4.248;2023-09-12T04:52:56;18.90;99.90
16301;DHT22;8258;51.020;4.248;2023-09-12T04:55:23;18.90;99.90
16301;DHT22;8258;51.020;4.248;2023-09-12T04:57:50;18.90;99.90
16301;DHT22;8258;51.020;4.248;2023-09-12T05:00:17;18.80;99.90
16301;DHT22;8258;51.020;4.248;2023-09-12T05:02:43;18.70;99.90
16301;DHT22;8258;51.020;4.248;2023-09-12T05:05:10;18.60;99.90
16301;DHT22;8258;51.020;4.248;2023-09-12T05:07:37;18.50;99.90
16301;DHT22;8258;51.020;4.248;2023-09-12T05:10:07;18.40;99.90
16301;DHT22;8258;51.020;4.248;2023-09-12T05:12:34;18.40;99.90
16301;DHT22;8258;51.020;4.248;2023-09-12T05:15:01;18.40;99.90
16301;DHT22;8258;51.020;4.248;2023-09-12T05:17:28;18.50;99.90
16301;DHT22;8258;51.020;4.248;2023-09-12T05:19:55;18.40;99.90
16301;DHT22;8258;51.020;4.248;2023-09-12T05:22:22;18.40;99.90
16301;DHT22;8258;51.020;4.248;2023-09-12T05:24:48;18.40;99.90
16301;DHT22;8258;51.020;4.248;2023-09-12T05:27:17;18.40;99.90
16301;DHT22;8258;51.020;4.248;2023-09-12T05:29:44;18.30;99.90
16301;DHT22;8258;51.020;4.248;2023-09-12T05:32:11;18.10;99.90
16301;DHT22;8258;51.020;4.248;2023-09-12T05:34:38;18.10;99.90
16301;DHT22;8258;51.020;4.248;2023-09-12T05:37:05;18.10;99.90
16301;DHT22;8258;51.020;4.248;2023-09-12T05:39:32;18.00;99.90
16301;DHT22;8258;51.020;4.248;2023-09-12T05:41:59;18.00;99.90
16301;DHT22;8258;51.020;4.248;2023-09-12T05:44:28;18.00;99.90
16301;DHT22;8258;51.020;4.248;2023-09-12T05:46:55;18.00;99.90
16301;DHT22;8258;51.020;4.248;2023-09-12T05:49:22;18.10;99.90
16301;DHT22;8258;51.020;4.248;2023-09-12T05:51:49;18.10;99.90
16301;DHT22;8258;51.020;4.248;2023-09-12T05:54:16;18.10;99.90
16301;DHT22;8258;51.020;4.248;2023-09-12T05:56:44;18.10;99.90
16301;DHT22;8258;51.020;4.248;2023-09-12T05:59:13;18.10;99.90
16301;DHT22;8258;51.020;4.248;2023-09-12T06:01:41;18.10;99.90
16301;DHT22;8258;51.020;4.248;2023-09-12T06:04:08;18.20;99.90
16301;DHT22;8258;51.020;4.248;2023-09-12T06:06:35;18.30;99.90
16301;DHT22;8258;51.020;4.248;2023-09-12T06:09:02;18.30;99.90
16301;DHT22;8258;51.020;4.248;2023-09-12T06:11:29;18.40;99.90
16301;DHT22;8258;51.020;4.248;2023-09-12T06:13:56;18.50;99.90
16301;DHT22;8258;51.020;4.248;2023-09-12T06:16:24;18.80;99.90
16301;DHT22;8258;51.020;4.248;2023-09-12T06:18:53;19.00;99.90
16301;DHT22;8258;51.020;4.248;2023-09-12T06:21:21;19.10;99.90
16301;DHT22;8258;51.020;4.248;2023-09-12T06:23:48;19.30;99.90
16301;DHT22;8258;51.020;4.248;2023-09-12T06:26:15;19.30;99.90
16301;DHT22;8258;51.020;4.248;2023-09-12T06:28:42;19.50;99.90
16301;DHT22;8258;51.020;4.248;2023-09-12T06:31:09;19.90;99.90
16301;DHT22;8258;51.020;4.248;2023-09-12T06:33:36;20.40;99.90
16301;DHT22;8258;51.020;4.248;2023-09-12T06:36:04;20.90;99.90
16301;DHT22;8258;51.020;4.248;2023-09-12T06:38:32;21.10;99.90
16301;DHT22;8258;51.020;4.248;2023-09-12T06:40:58;21.40;99.90
16301;DHT22;8258;51.020;4.248;2023-09-12T06:43:26;21.30;99.90
16301;DHT22;8258;51.020;4.248;2023-09-12T06:45:53;21.70;99.90
16301;DHT22;8258;51.020;4.248;2023-09-12T06:48:19;21.60;99.90
16301;DHT22;8258;51.020;4.248;2023-09-12T06:50:46;21.30;99.90
16301;DHT22;8258;51.020;4.248;2023-09-12T06:53:15;21.00;99.90
16301;DHT22;8258;51.020;4.248;2023-09-12T06:55:42;20.40;99.90
16301;DHT22;8258;51.020;4.248;2023-09-12T06:58:08;20.50;99.90
16301;DHT22;8258;51.020;4.248;2023-09-12T07:00:36;20.50;99.90
16301;DHT22;8258;51.020;4.248;2023-09-12T07:03:05;20.80;99.90
16301;DHT22;8258;51.020;4.248;2023-09-12T07:05:32;20.90;99.90
16301;DHT22;8258;51.020;4.248;2023-09-12T07:08:02;21.00;99.90
16301;DHT22;8258;51.020;4.248;2023-09-12T07:10:31;20.80;99.90
16301;DHT22;8258;51.020;4.248;2023-09-12T07:12:58;20.70;99.90
16301;DHT22;8258;51.020;4.248;2023-09-12T07:15:25;20.60;99.90
16301;DHT22;8258;51.020;4.248;2023-09-12T07:17:52;20.50;99.90
16301;DHT22;8258;51.020;4.248;2023-09-12T07:20:19;20.40;99.90
16301;DHT22;8258;51.020;4.248;2023-09-12T07:22:46;20.50;99.90
16301;DHT22;8258;51.020;4.248;2023-09-12T07:25:13;20.20;99.90
16301;DHT22;8258;51.020;4.248;2023-09-12T07:27:42;19.90;99.90
16301;DHT22;8258;51.020;4.248;2023-09-12T07:30:10;19.80;99.90
16301;DHT22;8258;51.020;4.248;2023-09-12T07:32:37;20.00;99.90
16301;DHT22;8258;51.020;4.248;2023-09-12T07:35:04;20.10;99.90
16301;DHT22;8258;51.020;4.248;2023-09-12T07:37:31;20.40;99.90
16301;DHT22;8258;51.020;4.248;2023-09-12T07:39:58;20.90;99.90
16301;DHT22;8258;51.020;4.248;2023-09-12T07:42:25;21.50;99.90
16301;DHT22;8258;51.020;4.248;2023-09-12T07:44:55;21.70;99.90
16301;DHT22;8258;51.020;4.248;2023-09-12T07:47:22;21.80;99.90
16301;DHT22;8258;51.020;4.248;2023-09-12T07:49:53;21.70;99.90
16301;DHT22;8258;51.020;4.248;2023-09-12T07:52:20;21.20;99.90
16301;DHT22;8258;51.020;4.248;2023-09-12T07:54:48;20.80;99.90
16301;DHT22;8258;51.020;4.248;2023-09-12T07:57:15;20.60;99.90
16301;DHT22;8258;51.020;4.248;2023-09-12T07:59:42;20.30;99.90
16301;DHT22;8258;51.020;4.248;2023-09-12T08:02:11;20.10;99.90
16301;DHT22;8258;51.020;4.248;2023-09-12T08:04:38;20.20;99.90
16301;DHT22;8258;51.020;4.248;2023-09-12T08:07:05;20.50;99.90
16301;DHT22;8258;51.020;4.248;2023-09-12T08:09:47;20.60;99.90
16301;DHT22;8258;51.020;4.248;2023-09-12T08:12:15;20.50;99.90
16301;DHT22;8258;51.020;4.248;2023-09-12T08:14:42;20.50;99.90
16301;DHT22;8258;51.020;4.248;2023-09-12T08:17:12;20.50;99.90
16301;DHT22;8258;51.020;4.248;2023-09-12T08:19:39;20.90;99.90
16301;DHT22;8258;51.020;4.248;2023-09-12T08:22:07;21.20;99.90
16301;DHT22;8258;51.020;4.248;2023-09-12T08:24:34;21.50;99.90
16301;DHT22;8258;51.020;4.248;2023-09-12T08:27:01;21.50;99.90
16301;DHT22;8258;51.020;4.248;2023-09-12T08:29:28;21.60;99.90
16301;DHT22;8258;51.020;4.248;2023-09-12T08:31:56;21.40;99.90
16301;DHT22;8258;51.020;4.248;2023-09-12T08:34:25;21.90;99.90
16301;DHT22;8258;51.020;4.248;2023-09-12T08:36:52;22.50;99.90
16301;DHT22;8258;51.020;4.248;2023-09-12T08:39:23;23.20;99.90
16301;DHT22;8258;51.020;4.248;2023-09-12T08:41:51;24.40;99.90
16301;DHT22;8258;51.020;4.248;2023-09-12T08:44:19;24.80;99.90
16301;DHT22;8258;51.020;4.248;2023-09-12T08:46:47;25.80;99.90
16301;DHT22;8258;51.020;4.248;2023-09-12T08:49:14;27.10;99.90
16301;DHT22;8258;51.020;4.248;2023-09-12T08:51:42;26.50;99.90
16301;DHT22;8258;51.020;4.248;2023-09-12T08:54:10;27.00;99.90
16301;DHT22;8258;51.020;4.248;2023-09-12T08:56:39;26.40;99.90
16301;DHT22;8258;51.020;4.248;2023-09-12T08:59:07;25.40;99.90
16301;DHT22;8258;51.020;4.248;2023-09-12T09:01:36;25.10;99.90
16301;DHT22;8258;51.020;4.248;2023-09-12T09:04:05;25.50;99.90
16301;DHT22;8258;51.020;4.248;2023-09-12T09:06:32;26.20;99.90
16301;DHT22;8258;51.020;4.248;2023-09-12T09:09:05;26.80;99.90
16301;DHT22;8258;51.020;4.248;2023-09-12T09:11:33;27.70;99.90
16301;DHT22;8258;51.020;4.248;2023-09-12T09:14:01;27.90;99.90
16301;DHT22;8258;51.020;4.248;2023-09-12T09:16:29;27.70;99.90
16301;DHT22;8258;51.020;4.248;2023-09-12T09:18:58;27.50;99.90
16301;DHT22;8258;51.020;4.248;2023-09-12T09:21:26;28.70;99.90
16301;DHT22;8258;51.020;4.248;2023-09-12T09:23:57;28.50;99.90
16301;DHT22;8258;51.020;4.248;2023-09-12T09:26:25;28.70;99.90
16301;DHT22;8258;51.020;4.248;2023-09-12T09:29:08;28.60;99.90
16301;DHT22;8258;51.020;4.248;2023-09-12T09:31:39;28.10;99.90
16301;DHT22;8258;51.020;4.248;2023-09-12T09:34:10;27.50;99.90
16301;DHT22;8258;51.020;4.248;2023-09-12T09:36:41;27.80;99.90
16301;DHT22;8258;51.020;4.248;2023-09-12T09:39:08;28.00;99.90
16301;DHT22;8258;51.020;4.248;2023-09-12T09:41:37;27.60;99.90
16301;DHT22;8258;51.020;4.248;2023-09-12T09:44:05;28.20;99.90
16301;DHT22;8258;51.020;4.248;2023-09-12T09:46:32;28.50;99.90
16301;DHT22;8258;51.020;4.248;2023-09-12T09:48:59;28.70;99.90
16301;DHT22;8258;51.020;4.248;2023-09-12T09:51:26;28.80;99.90
16301;DHT22;8258;51.020;4.248;2023-09-12T09:53:53;29.00;99.90
16301;DHT22;8258;51.020;4.248;2023-09-12T09:56:24;29.50;99.90
16301;DHT22;8258;51.020;4.248;2023-09-12T09:58:54;29.20;99.90
16301;DHT22;8258;51.020;4.248;2023-09-12T10:01:22;28.60;99.90
16301;DHT22;8258;51.020;4.248;2023-09-12T10:03:51;29.70;99.90
16301;DHT22;8258;51.020;4.248;2023-09-12T10:06:19;30.70;99.90
16301;DHT22;8258;51.020;4.248;2023-09-12T10:08:49;31.80;99.90
16301;DHT22;8258;51.020;4.248;2023-09-12T10:11:18;31.80;99.90
16301;DHT22;8258;51.020;4.248;2023-09-12T10:13:49;32.00;99.80
16301;DHT22;8258;51.020;4.248;2023-09-12T10:16:18;32.00;99.60
16301;DHT22;8258;51.020;4.248;2023-09-12T10:18:54;31.80;99.00
16301;DHT22;8258;51.020;4.248;2023-09-12T10:21:26;32.10;98.90
16301;DHT22;8258;51.020;4.248;2023-09-12T10:23:56;32.50;97.80
16301;DHT22;8258;51.020;4.248;2023-09-12T10:26:25;32.00;95.80
16301;DHT22;8258;51.020;4.248;2023-09-12T10:28:52;33.20;94.60
16301;DHT22;8258;51.020;4.248;2023-09-12T10:31:20;33.60;92.30
16301;DHT22;8258;51.020;4.248;2023-09-12T10:33:49;33.30;91.00
16301;DHT22;8258;51.020;4.248;2023-09-12T10:36:18;33.90;87.20
16301;DHT22;8258;51.020;4.248;2023-09-12T10:38:48;34.20;83.30
16301;DHT22;8258;51.020;4.248;2023-09-12T10:41:15;34.20;81.10
16301;DHT22;8258;51.020;4.248;2023-09-12T10:43:44;34.10;81.90
16301;DHT22;8258;51.020;4.248;2023-09-12T10:46:15;34.30;79.80
16301;DHT22;8258;51.020;4.248;2023-09-12T10:48:44;34.10;78.70
16301;DHT22;8258;51.020;4.248;2023-09-12T10:51:12;34.00;76.70
16301;DHT22;8258;51.020;4.248;2023-09-12T10:53:45;34.50;70.10
16301;DHT22;8258;51.020;4.248;2023-09-12T10:56:16;34.80;66.50
16301;DHT22;8258;51.020;4.248;2023-09-12T10:59:08;34.40;69.00
16301;DHT22;8258;51.020;4.248;2023-09-12T11:01:38;34.80;68.00
16301;DHT22;8258;51.020;4.248;2023-09-12T11:04:33;35.00;66.20
16301;DHT22;8258;51.020;4.248;2023-09-12T11:07:43;35.20;63.50
16301;DHT22;8258;51.020;4.248;2023-09-12T11:10:18;34.60;65.40
16301;DHT22;8258;51.020;4.248;2023-09-12T11:12:47;33.80;68.70
16301;DHT22;8258;51.020;4.248;2023-09-12T11:15:14;34.40;62.10
16301;DHT22;8258;51.020;4.248;2023-09-12T11:17:43;34.60;64.30
16301;DHT22;8258;51.020;4.248;2023-09-12T11:20:11;34.70;62.90
16301;DHT22;8258;51.020;4.248;2023-09-12T11:22:40;35.50;60.20
16301;DHT22;8258;51.020;4.248;2023-09-12T11:25:18;35.60;62.00
16301;DHT22;8258;51.020;4.248;2023-09-12T11:28:03;35.30;61.00
16301;DHT22;8258;51.020;4.248;2023-09-12T11:30:30;35.00;61.40
16301;DHT22;8258;51.020;4.248;2023-09-12T11:32:58;35.20;62.00
16301;DHT22;8258;51.020;4.248;2023-09-12T11:35:26;36.50;57.70
16301;DHT22;8258;51.020;4.248;2023-09-12T11:37:56;36.10;57.50
16301;DHT22;8258;51.020;4.248;2023-09-12T11:40:24;36.30;57.10
16301;DHT22;8258;51.020;4.248;2023-09-12T11:42:52;35.60;58.50
16301;DHT22;8258;51.020;4.248;2023-09-12T11:45:20;35.90;57.10
16301;DHT22;8258;51.020;4.248;2023-09-12T11:47:49;36.60;57.30
16301;DHT22;8258;51.020;4.248;2023-09-12T11:50:29;37.50;51.80
16301;DHT22;8258;51.020;4.248;2023-09-12T11:53:02;36.80;52.00
16301;DHT22;8258;51.020;4.248;2023-09-12T11:55:32;36.40;51.80
16301;DHT22;8258;51.020;4.248;2023-09-12T11:57:59;36.10;52.70
16301;DHT22;8258;51.020;4.248;2023-09-12T12:00:27;35.80;54.20
16301;DHT22;8258;51.020;4.248;2023-09-12T12:02:55;35.30;52.90
16301;DHT22;8258;51.020;4.248;2023-09-12T12:05:22;35.30;54.60
16301;DHT22;8258;51.020;4.248;2023-09-12T12:07:50;36.00;52.10
16301;DHT22;8258;51.020;4.248;2023-09-12T12:10:18;34.90;53.00
16301;DHT22;8258;51.020;4.248;2023-09-12T12:12:45;33.60;56.00
16301;DHT22;8258;51.020;4.248;2023-09-12T12:15:13;33.70;58.30
16301;DHT22;8258;51.020;4.248;2023-09-12T12:17:43;34.30;56.10
16301;DHT22;8258;51.020;4.248;2023-09-12T12:20:11;34.60;55.20
16301;DHT22;8258;51.020;4.248;2023-09-12T12:22:39;34.10;56.40
16301;DHT22;8258;51.020;4.248;2023-09-12T12:25:07;33.90;58.10
16301;DHT22;8258;51.020;4.248;2023-09-12T12:27:37;33.30;60.10
16301;DHT22;8258;51.020;4.248;2023-09-12T12:30:06;34.70;58.80
16301;DHT22;8258;51.020;4.248;2023-09-12T12:32:34;34.80;55.20
16301;DHT22;8258;51.020;4.248;2023-09-12T12:35:03;34.30;56.20
16301;DHT22;8258;51.020;4.248;2023-09-12T12:37:30;34.50;56.70
16301;DHT22;8258;51.020;4.248;2023-09-12T12:39:58;34.50;56.20
16301;DHT22;8258;51.020;4.248;2023-09-12T12:42:33;35.60;53.90
16301;DHT22;8258;51.020;4.248;2023-09-12T12:45:02;36.10;52.60
16301;DHT22;8258;51.020;4.248;2023-09-12T12:47:37;37.00;51.90
16301;DHT22;8258;51.020;4.248;2023-09-12T12:50:08;36.10;53.10
16301;DHT22;8258;51.020;4.248;2023-09-12T12:52:35;34.10;56.40
16301;DHT22;8258;51.020;4.248;2023-09-12T12:55:07;32.80;60.40
16301;DHT22;8258;51.020;4.248;2023-09-12T12:57:36;32.50;63.10
16301;DHT22;8258;51.020;4.248;2023-09-12T13:00:09;32.00;65.10
16301;DHT22;8258;51.020;4.248;2023-09-12T13:02:36;32.20;67.50
16301;DHT22;8258;51.020;4.248;2023-09-12T13:05:06;31.70;68.00
16301;DHT22;8258;51.020;4.248;2023-09-12T13:07:33;31.40;69.00
16301;DHT22;8258;51.020;4.248;2023-09-12T13:10:01;32.40;70.30
16301;DHT22;8258;51.020;4.248;2023-09-12T13:12:30;33.00;66.40
16301;DHT22;8258;51.020;4.248;2023-09-12T13:14:57;32.70;64.80
16301;DHT22;8258;51.020;4.248;2023-09-12T13:17:26;32.60;62.00
16301;DHT22;8258;51.020;4.248;2023-09-12T13:19:53;32.60;65.00
16301;DHT22;8258;51.020;4.248;2023-09-12T13:22:19;32.40;63.40
16301;DHT22;8258;51.020;4.248;2023-09-12T13:24:46;31.90;66.40
16301;DHT22;8258;51.020;4.248;2023-09-12T13:27:13;31.20;69.10
16301;DHT22;8258;51.020;4.248;2023-09-12T13:29:40;30.70;70.80
16301;DHT22;8258;51.020;4.248;2023-09-12T13:32:07;30.10;73.70
16301;DHT22;8258;51.020;4.248;2023-09-12T13:34:37;29.60;75.80
16301;DHT22;8258;51.020;4.248;2023-09-12T13:37:04;29.00;80.80
16301;DHT22;8258;51.020;4.248;2023-09-12T13:39:31;28.80;81.70
16301;DHT22;8258;51.020;4.248;2023-09-12T13:41:58;28.60;86.10
16301;DHT22;8258;51.020;4.248;2023-09-12T13:44:28;28.10;90.40
16301;DHT22;8258;51.020;4.248;2023-09-12T13:46:55;28.50;90.30
16301;DHT22;8258;51.020;4.248;2023-09-12T13:49:23;28.40;89.50
16301;DHT22;8258;51.020;4.248;2023-09-12T13:51:51;28.20;89.60
16301;DHT22;8258;51.020;4.248;2023-09-12T13:54:18;27.60;91.90
16301;DHT22;8258;51.020;4.248;2023-09-12T13:56:45;27.50;94.60
16301;DHT22;8258;51.020;4.248;2023-09-12T13:59:12;27.30;96.70
16301;DHT22;8258;51.020;4.248;2023-09-12T14:01:39;27.20;99.40
16301;DHT22;8258;51.020;4.248;2023-09-12T14:04:06;27.20;99.90
16301;DHT22;8258;51.020;4.248;2023-09-12T14:06:33;27.30;99.90
16301;DHT22;8258;51.020;4.248;2023-09-12T14:09:03;27.20;99.90
16301;DHT22;8258;51.020;4.248;2023-09-12T14:11:30;27.30;99.90
16301;DHT22;8258;51.020;4.248;2023-09-12T14:13:57;27.60;99.90
16301;DHT22;8258;51.020;4.248;2023-09-12T14:16:24;27.40;99.90
16301;DHT22;8258;51.020;4.248;2023-09-12T14:18:51;27.40;99.90
16301;DHT22;8258;51.020;4.248;2023-09-12T14:21:18;27.20;99.90
16301;DHT22;8258;51.020;4.248;2023-09-12T14:23:45;27.10;99.90
16301;DHT22;8258;51.020;4.248;2023-09-12T14:26:13;26.90;99.90
16301;DHT22;8258;51.020;4.248;2023-09-12T14:28:40;26.90;99.90
16301;DHT22;8258;51.020;4.248;2023-09-12T14:31:07;26.90;99.90
16301;DHT22;8258;51.020;4.248;2023-09-12T14:33:39;26.70;99.90
16301;DHT22;8258;51.020;4.248;2023-09-12T14:36:07;26.60;99.90
16301;DHT22;8258;51.020;4.248;2023-09-12T14:38:34;26.40;99.90
16301;DHT22;8258;51.020;4.248;2023-09-12T14:41:01;26.40;99.90
16301;DHT22;8258;51.020;4.248;2023-09-12T14:43:29;26.50;99.90
16301;DHT22;8258;51.020;4.248;2023-09-12T14:45:56;26.50;99.90
16301;DHT22;8258;51.020;4.248;2023-09-12T14:48:23;26.30;99.90
16301;DHT22;8258;51.020;4.248;2023-09-12T14:50:50;26.40;99.90
16301;DHT22;8258;51.020;4.248;2023-09-12T14:53:17;26.40;99.90
16301;DHT22;8258;51.020;4.248;2023-09-12T14:55:44;26.40;99.90
16301;DHT22;8258;51.020;4.248;2023-09-12T14:58:12;26.30;99.90
16301;DHT22;8258;51.020;4.248;2023-09-12T15:00:40;26.20;99.90
16301;DHT22;8258;51.020;4.248;2023-09-12T15:03:07;26.10;99.90
16301;DHT22;8258;51.020;4.248;2023-09-12T15:05:34;26.30;99.90
16301;DHT22;8258;51.020;4.248;2023-09-12T15:08:01;26.10;99.90
16301;DHT22;8258;51.020;4.248;2023-09-12T15:10:29;26.10;99.90
16301;DHT22;8258;51.020;4.248;2023-09-12T15:12:56;26.00;99.90
16301;DHT22;8258;51.020;4.248;2023-09-12T15:15:23;26.10;99.90
16301;DHT22;8258;51.020;4.248;2023-09-12T15:17:51;26.00;99.90
16301;DHT22;8258;51.020;4.248;2023-09-12T15:20:18;26.10;99.90
16301;DHT22;8258;51.020;4.248;2023-09-12T15:22:45;25.90;99.90
16301;DHT22;8258;51.020;4.248;2023-09-12T15:25:12;25.80;99.90
16301;DHT22;8258;51.020;4.248;2023-09-12T15:27:39;25.80;99.90
16301;DHT22;8258;51.020;4.248;2023-09-12T15:30:07;25.70;99.90
16301;DHT22;8258;51.020;4.248;2023-09-12T15:32:34;25.70;99.90
16301;DHT22;8258;51.020;4.248;2023-09-12T15:35:02;25.70;99.90
16301;DHT22;8258;51.020;4.248;2023-09-12T15:37:30;25.70;99.90
16301;DHT22;8258;51.020;4.248;2023-09-12T15:39:57;25.70;99.90
16301;DHT22;8258;51.020;4.248;2023-09-12T15:42:23;25.50;99.90
16301;DHT22;8258;51.020;4.248;2023-09-12T15:44:50;25.40;99.90
16301;DHT22;8258;51.020;4.248;2023-09-12T15:47:17;25.30;99.90
16301;DHT22;8258;51.020;4.248;2023-09-12T15:49:44;25.50;99.90
16301;DHT22;8258;51.020;4.248;2023-09-12T15:52:13;25.40;99.90
16301;DHT22;8258;51.020;4.248;2023-09-12T15:54:40;25.40;99.90
16301;DHT22;8258;51.020;4.248;2023-09-12T15:57:07;25.30;99.90